createdAt,value
2018-06-22T00:00:41.607Z,21.76
2018-06-22T00:03:10.091Z,21.74
2018-06-22T00:05:38.502Z,21.68
2018-06-22T00:08:06.885Z,21.47
2018-06-22T00:10:35.223Z,21.47
2018-06-22T00:13:03.650Z,21.62
2018-06-22T00:15:32.045Z,21.57
2018-06-22T00:18:00.333Z,21.22
2018-06-22T00:20:28.790Z,21.30
2018-06-22T00:22:57.168Z,21.51
2018-06-22T00:25:25.687Z,21.51
2018-06-22T00:27:54.035Z,21.59
2018-06-22T00:30:22.518Z,21.68
2018-06-22T00:32:50.817Z,21.40
2018-06-22T00:35:19.274Z,21.57
2018-06-22T00:37:47.755Z,21.41
2018-06-22T00:40:16.207Z,21.44
2018-06-22T00:42:44.508Z,21.50
2018-06-22T00:45:12.773Z,21.28
2018-06-22T00:47:41.501Z,21.20
2018-06-22T00:50:09.840Z,21.48
2018-06-22T00:52:38.120Z,21.27
2018-06-22T00:55:06.441Z,21.11
2018-06-22T00:57:34.884Z,21.39
2018-06-22T01:00:03.075Z,21.43
2018-06-22T01:02:31.576Z,21.07
2018-06-22T01:04:59.886Z,21.12
2018-06-22T01:07:28.101Z,21.11
2018-06-22T01:09:56.518Z,21.18
2018-06-22T01:12:24.962Z,21.02
2018-06-22T01:14:53.133Z,20.73
2018-06-22T01:17:21.445Z,21.03
2018-06-22T01:19:49.664Z,21.11
2018-06-22T01:22:18.703Z,21.36
2018-06-22T01:24:47.328Z,21.56
2018-06-22T01:27:15.737Z,21.76
2018-06-22T01:29:44.187Z,21.40
2018-06-22T01:32:12.766Z,21.29
2018-06-22T01:34:41.277Z,20.98
2018-06-22T01:37:09.766Z,20.91
2018-06-22T01:39:38.318Z,20.91
2018-06-22T01:42:06.626Z,21.16
2018-06-22T01:44:35.041Z,21.26
2018-06-22T01:47:03.540Z,21.13
2018-06-22T01:49:31.856Z,20.99
2018-06-22T01:52:00.137Z,20.92
2018-06-22T01:54:28.570Z,20.88
2018-06-22T01:56:56.906Z,20.76
2018-06-22T01:59:25.287Z,20.67
2018-06-22T02:01:53.816Z,20.83
2018-06-22T02:04:22.242Z,20.85
2018-06-22T02:06:50.518Z,20.67
2018-06-22T02:09:18.934Z,20.92
2018-06-22T02:11:47.401Z,20.97
2018-06-22T02:14:15.876Z,20.87
2018-06-22T02:16:44.307Z,20.80
2018-06-22T02:19:12.698Z,20.81
2018-06-22T02:21:41.077Z,21.04
2018-06-22T02:24:09.454Z,21.09
2018-06-22T02:26:38.393Z,21.13
2018-06-22T02:29:06.775Z,21.28
2018-06-22T02:31:35.270Z,21.34
2018-06-22T02:34:03.733Z,21.41
2018-06-22T02:36:32.405Z,21.49
2018-06-22T02:39:01.069Z,21.55
2018-06-22T02:41:29.477Z,21.65
2018-06-22T02:43:57.959Z,21.68
2018-06-22T02:46:26.386Z,21.50
2018-06-22T02:48:54.925Z,21.47
2018-06-22T02:51:24.409Z,21.36
2018-06-22T02:53:52.880Z,21.36
2018-06-22T02:56:20.879Z,21.25
2018-06-22T02:58:49.388Z,21.40
2018-06-22T03:01:17.726Z,21.47
2018-06-22T03:03:46.330Z,21.16
2018-06-22T03:06:14.790Z,21.13
2018-06-22T03:08:43.330Z,21.32
2018-06-22T03:11:11.859Z,21.37
2018-06-22T03:13:40.152Z,21.40
2018-06-22T03:16:11.497Z,21.24
2018-06-22T03:18:39.965Z,21.19
2018-06-22T03:21:08.601Z,21.07
2018-06-22T03:23:37.042Z,20.99
2018-06-22T03:26:05.922Z,20.93
2018-06-22T03:28:34.458Z,20.97
2018-06-22T03:31:02.682Z,21.30
2018-06-22T03:33:31.305Z,21.32
2018-06-22T03:35:59.902Z,21.38
2018-06-22T03:38:28.654Z,21.21
2018-06-22T03:40:57.043Z,20.97
2018-06-22T03:43:25.522Z,20.86
2018-06-22T03:45:54.017Z,20.87
2018-06-22T03:48:22.414Z,20.91
2018-06-22T03:50:51.110Z,20.97
2018-06-22T03:53:19.541Z,21.01
2018-06-22T03:55:48.020Z,20.86
2018-06-22T03:58:16.602Z,20.90
2018-06-22T04:00:45.573Z,20.92
2018-06-22T04:03:14.073Z,20.86
2018-06-22T04:05:42.652Z,20.96
2018-06-22T04:08:11.364Z,20.99
2018-06-22T04:10:39.741Z,21.24
2018-06-22T04:13:08.106Z,21.43
2018-06-22T04:15:36.489Z,21.62
2018-06-22T04:18:04.966Z,21.75
2018-06-22T04:20:33.450Z,21.71
2018-06-22T04:23:01.425Z,21.93
2018-06-22T04:25:32.678Z,21.98
2018-06-22T04:28:00.837Z,22.18
2018-06-22T04:30:29.226Z,22.19
2018-06-22T04:32:57.657Z,22.24
2018-06-22T04:35:26.184Z,22.24
2018-06-22T04:37:57.433Z,22.36
2018-06-22T04:40:26.014Z,22.50
2018-06-22T04:42:54.496Z,22.40
2018-06-22T04:45:23.081Z,22.57
2018-06-22T04:47:51.554Z,22.64
2018-06-22T04:50:20.041Z,22.73
2018-06-22T04:52:48.507Z,22.84
2018-06-22T04:55:17.048Z,22.99
2018-06-22T04:57:45.332Z,23.04
2018-06-22T05:00:13.878Z,23.10
2018-06-22T05:02:42.540Z,23.09
2018-06-22T05:05:10.728Z,23.12
2018-06-22T05:07:39.396Z,23.09
2018-06-22T05:10:08.304Z,23.00
2018-06-22T05:12:37.071Z,23.02
2018-06-22T05:15:05.506Z,23.23
2018-06-22T05:17:34.112Z,23.42
2018-06-22T05:20:02.332Z,23.54
2018-06-22T05:22:31.025Z,23.59
2018-06-22T05:24:59.729Z,23.65
2018-06-22T05:27:28.110Z,23.73
2018-06-22T05:29:57.373Z,23.73
2018-06-22T05:32:25.966Z,23.83
2018-06-22T05:34:54.536Z,23.91
2018-06-22T05:37:23.180Z,23.92
2018-06-22T05:39:51.709Z,24.02
2018-06-22T05:42:20.167Z,24.15
2018-06-22T05:44:48.682Z,24.32
2018-06-22T05:47:17.192Z,24.51
2018-06-22T05:49:45.429Z,24.44
2018-06-22T05:52:14.040Z,24.52
2018-06-22T05:54:42.665Z,24.60
2018-06-22T05:57:11.130Z,24.67
2018-06-22T05:59:40.290Z,24.72
2018-06-22T06:02:08.875Z,24.77
2018-06-22T06:04:37.357Z,24.82
2018-06-22T06:07:05.840Z,24.85
2018-06-22T06:09:35.440Z,24.91
2018-06-22T06:12:04.017Z,25.03
2018-06-22T06:14:32.618Z,25.20
2018-06-22T06:17:01.226Z,25.19
2018-06-22T06:19:29.781Z,25.21
2018-06-22T06:21:58.411Z,25.44
2018-06-22T06:24:26.968Z,25.48
2018-06-22T06:26:55.180Z,25.52
2018-06-22T06:29:24.413Z,25.70
2018-06-22T06:31:53.704Z,25.69
2018-06-22T06:34:21.813Z,25.73
2018-06-22T06:36:49.958Z,25.84
2018-06-22T06:39:18.178Z,25.73
2018-06-22T06:41:46.339Z,25.91
2018-06-22T06:44:14.424Z,26.18
2018-06-22T06:46:42.523Z,26.25
2018-06-22T06:49:10.804Z,26.31
2018-06-22T06:51:38.965Z,26.26
2018-06-22T06:54:07.085Z,26.02
2018-06-22T06:56:35.162Z,26.25
2018-06-22T06:59:03.234Z,26.38
2018-06-22T07:01:31.421Z,26.28
2018-06-22T07:04:00.116Z,26.40
2018-06-22T07:06:28.140Z,26.44
2018-06-22T07:08:57.157Z,26.78
2018-06-22T07:11:25.174Z,26.82
2018-06-22T07:13:53.580Z,26.85
2018-06-22T07:16:22.054Z,26.71
2018-06-22T07:18:50.496Z,26.91
2018-06-22T07:21:18.954Z,26.91
2018-06-22T07:23:47.597Z,26.95
2018-06-22T07:26:16.249Z,26.92
2018-06-22T07:28:44.979Z,26.98
2018-06-22T07:31:13.652Z,26.99
2018-06-22T07:33:42.435Z,27.21
2018-06-22T07:36:13.986Z,27.34
2018-06-22T07:38:42.730Z,27.10
2018-06-22T07:41:11.115Z,27.42
2018-06-22T07:43:39.591Z,27.40
2018-06-22T07:46:08.178Z,27.49
2018-06-22T07:48:36.834Z,27.44
2018-06-22T07:51:05.476Z,27.59
2018-06-22T07:53:36.694Z,27.68
2018-06-22T07:56:05.169Z,27.73
2018-06-22T07:58:34.481Z,27.65
2018-06-22T08:01:03.334Z,27.30
2018-06-22T08:03:32.074Z,27.43
2018-06-22T08:06:00.633Z,27.78
2018-06-22T08:08:29.225Z,27.67
2018-06-22T08:11:07.665Z,27.78
2018-06-22T08:13:36.433Z,27.86
2018-06-22T08:16:05.102Z,28.03
2018-06-22T08:18:33.644Z,28.05
2018-06-22T08:21:02.396Z,28.16
2018-06-22T08:23:31.067Z,28.18
2018-06-22T08:25:59.544Z,28.19
2018-06-22T08:28:28.366Z,28.23
2018-06-22T08:30:57.647Z,28.32
2018-06-22T08:33:26.573Z,28.37
2018-06-22T08:35:55.007Z,28.53
2018-06-22T08:38:24.111Z,28.53
2018-06-22T08:40:53.327Z,28.61
2018-06-22T08:43:21.772Z,28.69
2018-06-22T08:45:50.034Z,28.84
2018-06-22T08:48:18.850Z,28.95
2018-06-22T08:50:47.269Z,28.99
2018-06-22T08:53:15.947Z,29.08
2018-06-22T08:55:44.444Z,29.13
2018-06-22T08:58:12.822Z,29.13
2018-06-22T09:00:41.550Z,29.08
2018-06-22T09:03:09.841Z,29.21
2018-06-22T09:05:38.467Z,29.17
2018-06-22T09:08:07.112Z,29.04
2018-06-22T09:10:35.391Z,29.21
2018-06-22T09:13:03.823Z,29.30
2018-06-22T09:15:32.245Z,29.36
2018-06-22T09:18:01.795Z,29.43
2018-06-22T09:20:30.021Z,29.45
2018-06-22T09:22:58.062Z,29.52
2018-06-22T09:25:26.138Z,29.52
2018-06-22T09:27:55.098Z,29.52
2018-06-22T09:30:23.447Z,29.47
2018-06-22T09:32:52.030Z,29.58
2018-06-22T09:35:20.106Z,29.66
2018-06-22T09:37:48.185Z,29.77
2018-06-22T09:40:16.711Z,29.64
2018-06-22T09:42:45.396Z,29.68
2018-06-22T09:45:13.814Z,29.72
2018-06-22T09:47:42.406Z,29.77
2018-06-22T09:50:10.967Z,29.89
2018-06-22T09:52:39.410Z,29.84
2018-06-22T09:55:11.315Z,29.92
2018-06-22T09:57:39.959Z,29.94
2018-06-22T10:00:08.529Z,29.94
2018-06-22T10:02:37.122Z,29.91
2018-06-22T10:05:05.634Z,29.86
2018-06-22T10:07:34.150Z,30.02
2018-06-22T10:10:02.675Z,30.18
2018-06-22T10:12:31.035Z,30.12
2018-06-22T10:14:59.503Z,30.15
2018-06-22T10:17:28.030Z,30.25
2018-06-22T10:19:56.566Z,30.19
2018-06-22T10:22:25.253Z,30.21
2018-06-22T10:24:53.629Z,30.25
2018-06-22T10:27:22.151Z,30.31
2018-06-22T10:29:50.689Z,30.37
2018-06-22T10:32:19.905Z,30.35
2018-06-22T10:34:48.429Z,30.35
2018-06-22T10:37:16.844Z,30.36
2018-06-22T10:39:45.870Z,30.43
2018-06-22T10:42:14.431Z,30.54
2018-06-22T10:44:43.127Z,30.63
2018-06-22T10:47:11.244Z,30.65
2018-06-22T10:49:40.389Z,30.84
2018-06-22T10:52:08.642Z,30.76
2018-06-22T10:54:36.740Z,30.82
2018-06-22T10:57:05.289Z,30.68
2018-06-22T10:59:34.198Z,30.68
2018-06-22T11:02:02.802Z,30.82
2018-06-22T11:04:31.422Z,30.81
2018-06-22T11:06:59.745Z,30.69
2018-06-22T11:09:28.278Z,30.62
2018-06-22T11:11:57.436Z,30.79
2018-06-22T11:14:26.235Z,30.64
2018-06-22T11:16:54.619Z,30.64
2018-06-22T11:19:23.372Z,30.54
2018-06-22T11:21:51.774Z,30.54
2018-06-22T11:24:20.302Z,30.50
2018-06-22T11:26:48.734Z,30.47
2018-06-22T11:29:16.728Z,30.58
2018-06-22T11:31:44.732Z,30.83
2018-06-22T11:34:12.779Z,31.05
2018-06-22T11:36:40.894Z,31.03
2018-06-22T11:39:10.272Z,31.07
2018-06-22T11:41:39.396Z,31.08
2018-06-22T11:44:08.249Z,31.00
2018-06-22T11:46:37.001Z,30.97
2018-06-22T11:49:06.362Z,30.87
2018-06-22T11:51:34.987Z,30.92
2018-06-22T11:54:03.416Z,30.91
2018-06-22T11:56:32.053Z,31.02
2018-06-22T11:59:00.740Z,31.20
2018-06-22T12:01:29.363Z,31.08
2018-06-22T12:03:57.809Z,31.03
2018-06-22T12:06:26.383Z,31.24
2018-06-22T12:08:54.974Z,31.24
2018-06-22T12:11:23.355Z,31.35
2018-06-22T12:13:51.942Z,31.29
2018-06-22T12:16:20.701Z,31.20
2018-06-22T12:18:49.227Z,31.17
2018-06-22T12:21:18.836Z,31.35
2018-06-22T12:23:47.322Z,31.45
2018-06-22T12:26:15.875Z,31.58
2018-06-22T12:28:45.189Z,31.70
2018-06-22T12:31:13.659Z,31.56
2018-06-22T12:33:42.038Z,31.46
2018-06-22T12:36:10.413Z,31.55
2018-06-22T12:38:38.900Z,31.34
2018-06-22T12:41:07.374Z,31.26
2018-06-22T12:43:35.977Z,31.18
2018-06-22T12:46:05.161Z,31.35
2018-06-22T12:48:33.829Z,31.26
2018-06-22T12:51:02.338Z,31.12
2018-06-22T12:53:30.914Z,30.98
2018-06-22T12:55:59.598Z,30.90
2018-06-22T12:58:28.133Z,30.86
2018-06-22T13:00:56.770Z,30.84
2018-06-22T13:03:25.143Z,30.84
2018-06-22T13:05:53.631Z,30.85
2018-06-22T13:08:21.995Z,30.96
2018-06-22T13:10:50.602Z,30.96
2018-06-22T13:13:19.083Z,30.80
2018-06-22T13:15:47.560Z,30.91
2018-06-22T13:18:16.114Z,30.88
2018-06-22T13:20:44.641Z,30.79
2018-06-22T13:23:12.998Z,30.80
2018-06-22T13:25:41.477Z,30.92
2018-06-22T13:28:09.862Z,30.82
2018-06-22T13:30:38.243Z,30.85
2018-06-22T13:33:06.657Z,30.76
2018-06-22T13:35:35.005Z,30.88
2018-06-22T13:38:03.557Z,30.86
2018-06-22T13:40:32.092Z,31.05
2018-06-22T13:43:00.463Z,31.08
2018-06-22T13:45:29.008Z,31.07
2018-06-22T13:47:57.597Z,30.99
2018-06-22T13:50:26.305Z,31.18
2018-06-22T13:52:54.881Z,31.24
2018-06-22T13:55:23.492Z,31.28
2018-06-22T13:57:51.859Z,31.19
2018-06-22T14:00:20.586Z,31.36
2018-06-22T14:02:50.261Z,31.45
2018-06-22T14:05:38.697Z,31.29
2018-06-22T14:08:07.378Z,31.13
2018-06-22T14:10:35.802Z,31.23
2018-06-22T14:13:04.335Z,31.28
2018-06-22T14:15:33.049Z,31.48
2018-06-22T14:18:01.703Z,31.50
2018-06-22T14:20:30.302Z,31.30
2018-06-22T14:22:58.877Z,31.13
2018-06-22T14:25:27.629Z,31.01
2018-06-22T14:27:56.168Z,31.21
2018-06-22T14:30:24.733Z,31.40
2018-06-22T14:32:53.340Z,31.31
2018-06-22T14:35:22.120Z,31.37
2018-06-22T14:37:50.719Z,31.37
2018-06-22T14:40:19.164Z,31.30
2018-06-22T14:42:47.556Z,31.23
2018-06-22T14:45:16.451Z,31.23
2018-06-22T14:47:45.454Z,31.11
2018-06-22T14:50:17.192Z,30.92
2018-06-22T14:52:45.981Z,30.78
2018-06-22T14:55:19.997Z,30.70
2018-06-22T14:57:53.903Z,30.76
2018-06-22T15:00:27.709Z,30.55
2018-06-22T15:03:02.703Z,30.39
2018-06-22T15:05:36.663Z,30.12
2018-06-22T15:08:06.917Z,29.94
2018-06-22T15:10:35.494Z,29.90
2018-06-22T15:13:03.597Z,29.83
2018-06-22T15:15:31.656Z,29.81
2018-06-22T15:17:59.670Z,29.56
2018-06-22T15:20:28.094Z,29.44
2018-06-22T15:22:56.182Z,29.31
2018-06-22T15:25:24.206Z,29.23
2018-06-22T15:27:52.912Z,29.19
2018-06-22T15:30:20.933Z,29.02
2018-06-22T15:32:49.277Z,29.12
2018-06-22T15:35:23.698Z,28.83
2018-06-22T15:37:57.638Z,28.94
2018-06-22T15:40:31.650Z,29.22
2018-06-22T15:43:05.501Z,29.26
2018-06-22T15:45:39.477Z,28.81
2018-06-22T15:48:13.435Z,28.97
2018-06-22T15:50:47.255Z,29.27
2018-06-22T15:53:20.981Z,28.79
2018-06-22T15:55:50.151Z,28.80
2018-06-22T15:58:18.639Z,28.99
2018-06-22T16:00:47.094Z,29.24
2018-06-22T16:03:20.999Z,28.97
2018-06-22T16:05:49.486Z,29.36
2018-06-22T16:08:18.098Z,29.53
2018-06-22T16:10:46.679Z,29.50
2018-06-22T16:13:19.916Z,28.91
2018-06-22T16:16:53.771Z,28.48
2018-06-22T16:20:31.929Z,28.22
2018-06-22T16:23:05.520Z,27.96
2018-06-22T16:25:39.389Z,27.69
2018-06-22T16:28:07.819Z,28.16
2018-06-22T16:30:37.399Z,28.34
2018-06-22T16:33:06.272Z,28.57
2018-06-22T16:35:35.174Z,28.25
2018-06-22T16:38:04.734Z,27.97
2018-06-22T16:40:33.151Z,27.93
2018-06-22T16:43:02.205Z,28.25
2018-06-22T16:45:31.407Z,28.54
2018-06-22T16:48:01.800Z,28.31
2018-06-22T16:50:30.302Z,28.18
2018-06-22T16:52:58.723Z,28.03
2018-06-22T16:55:28.051Z,27.93
2018-06-22T16:57:56.859Z,27.99
2018-06-22T17:00:25.750Z,27.81
2018-06-22T17:02:54.296Z,27.88
2018-06-22T17:05:22.662Z,28.00
2018-06-22T17:07:56.590Z,28.03
2018-06-22T17:10:30.434Z,27.97
2018-06-22T17:13:04.355Z,27.99
2018-06-22T17:15:38.317Z,27.92
2018-06-22T17:18:13.115Z,27.71
2018-06-22T17:20:43.083Z,27.72
2018-06-22T17:23:12.997Z,27.61
2018-06-22T17:25:43.632Z,27.57
2018-06-22T17:28:11.926Z,27.57
2018-06-22T17:30:42.411Z,27.65
2018-06-22T17:33:10.665Z,28.42
2018-06-22T17:35:42.172Z,28.10
2018-06-22T17:38:10.385Z,27.62
2018-06-22T17:40:41.288Z,27.41
2018-06-22T17:43:09.736Z,27.69
2018-06-22T17:45:39.594Z,28.31
2018-06-22T17:48:08.125Z,28.23
2018-06-22T17:50:38.255Z,27.88
2018-06-22T17:53:06.731Z,27.59
2018-06-22T17:55:35.130Z,27.69
2018-06-22T17:58:06.584Z,27.52
2018-06-22T18:00:40.493Z,27.23
2018-06-22T18:03:14.299Z,27.23
2018-06-22T18:05:47.882Z,27.25
2018-06-22T18:08:21.745Z,27.19
2018-06-22T18:10:55.461Z,27.07
2018-06-22T18:13:24.109Z,27.06
2018-06-22T18:15:52.464Z,27.19
2018-06-22T18:18:20.846Z,27.31
2018-06-22T18:20:49.533Z,27.30
2018-06-22T18:23:18.125Z,27.13
2018-06-22T18:25:46.580Z,27.10
2018-06-22T18:28:14.997Z,27.00
2018-06-22T18:30:43.521Z,27.02
2018-06-22T18:33:12.147Z,26.97
2018-06-22T18:35:40.618Z,26.95
2018-06-22T18:38:08.907Z,26.95
2018-06-22T18:40:36.856Z,26.84
2018-06-22T18:43:05.042Z,26.80
2018-06-22T18:45:33.066Z,26.84
2018-06-22T18:48:01.120Z,26.78
2018-06-22T18:50:30.250Z,26.80
2018-06-22T18:54:06.970Z,26.67
2018-06-22T18:56:40.758Z,26.53
2018-06-22T18:59:14.581Z,26.47
2018-06-22T19:01:48.517Z,26.52
2018-06-22T19:04:17.097Z,26.40
2018-06-22T19:06:45.444Z,26.33
2018-06-22T19:09:14.264Z,26.31
2018-06-22T19:11:42.758Z,26.36
2018-06-22T19:14:11.305Z,26.42
2018-06-22T19:16:40.451Z,26.49
2018-06-22T19:19:09.445Z,26.60
2018-06-22T19:21:37.945Z,26.72
2018-06-22T19:24:06.573Z,26.70
2018-06-22T19:26:34.841Z,26.67
2018-06-22T19:29:02.832Z,26.69
2018-06-22T19:31:31.296Z,26.54
2018-06-22T19:33:59.278Z,26.48
2018-06-22T19:36:27.252Z,26.30
2018-06-22T19:38:55.252Z,25.92
2018-06-22T19:41:23.682Z,26.10
2018-06-22T19:43:57.449Z,26.20
2018-06-22T19:46:31.442Z,26.08
2018-06-22T19:49:05.273Z,26.00
2018-06-22T19:51:38.937Z,25.92
2018-06-22T19:54:08.187Z,25.77
2018-06-22T19:56:36.596Z,25.42
2018-06-22T19:59:05.785Z,25.66
2018-06-22T20:01:34.392Z,25.62
2018-06-22T20:04:02.988Z,25.31
2018-06-22T20:06:31.533Z,25.13
2018-06-22T20:09:00.086Z,24.80
2018-06-22T20:11:28.762Z,25.14
2018-06-22T20:13:57.626Z,25.53
2018-06-22T20:16:25.948Z,25.37
2018-06-22T20:18:54.454Z,25.24
2018-06-22T20:21:23.065Z,25.23
2018-06-22T20:23:51.582Z,24.98
2018-06-22T20:26:25.130Z,25.17
2018-06-22T20:28:53.791Z,25.42
2018-06-22T20:31:28.794Z,25.46
2018-06-22T20:34:01.453Z,24.97
2018-06-22T20:36:35.465Z,25.27
2018-06-22T20:39:09.396Z,25.25
2018-06-22T20:41:43.317Z,24.92
2018-06-22T20:44:17.279Z,24.79
2018-06-22T20:46:51.155Z,24.58
2018-06-22T20:49:24.763Z,24.83
2018-06-22T20:52:00.408Z,24.99
2018-06-22T20:54:29.682Z,25.09
2018-06-22T20:56:59.250Z,24.52
2018-06-22T20:59:27.685Z,24.52
2018-06-22T21:01:55.970Z,24.49
2018-06-22T21:04:24.965Z,24.56
2018-06-22T21:06:53.499Z,24.75
2018-06-22T21:09:24.079Z,24.83
2018-06-22T21:11:53.181Z,24.62
2018-06-22T21:14:22.987Z,24.60
2018-06-22T21:16:51.374Z,24.70
2018-06-22T21:19:19.845Z,24.61
2018-06-22T21:21:53.542Z,24.53
2018-06-22T21:24:21.802Z,24.57
2018-06-22T21:26:49.978Z,24.48
2018-06-22T21:31:25.242Z,24.68
2018-06-22T21:33:58.966Z,24.30
2018-06-22T21:36:32.655Z,24.19
2018-06-22T21:39:02.625Z,24.21
2018-06-22T21:41:30.576Z,24.12
2018-06-22T21:43:58.609Z,24.22
2018-06-22T21:46:26.609Z,24.14
2018-06-22T21:48:54.933Z,24.15
2018-06-22T21:51:23.402Z,24.15
2018-06-22T21:53:53.002Z,24.12
2018-06-22T21:56:21.742Z,24.12
2018-06-22T21:58:50.121Z,24.11
2018-06-22T22:01:18.618Z,23.93
2018-06-22T22:03:47.071Z,24.11
2018-06-22T22:06:15.549Z,24.05
2018-06-22T22:08:44.797Z,24.14
2018-06-22T22:11:13.270Z,24.32
2018-06-22T22:13:42.100Z,24.32
2018-06-22T22:16:10.519Z,24.18
2018-06-22T22:18:38.805Z,24.34
2018-06-22T22:21:07.426Z,24.36
2018-06-22T22:23:35.853Z,24.39
2018-06-22T22:26:04.246Z,24.31
2018-06-22T22:28:32.726Z,24.23
2018-06-22T22:31:01.099Z,24.14
2018-06-22T22:33:29.682Z,24.00
2018-06-22T22:35:58.154Z,24.11
2018-06-22T22:38:26.440Z,23.99
2018-06-22T22:40:54.922Z,23.78
2018-06-22T22:43:23.210Z,23.73
2018-06-22T22:45:51.490Z,23.58
2018-06-22T22:48:19.858Z,23.54
2018-06-22T22:50:48.550Z,23.55
2018-06-22T22:53:16.905Z,23.42
2018-06-22T22:55:45.309Z,23.47
2018-06-22T22:58:13.864Z,23.25
2018-06-22T23:00:42.347Z,22.87
2018-06-22T23:03:10.802Z,22.73
2018-06-22T23:05:39.022Z,22.49
2018-06-22T23:08:07.415Z,22.25
2018-06-22T23:10:36.469Z,22.23
2018-06-22T23:13:04.875Z,22.16
2018-06-22T23:15:33.254Z,22.23
2018-06-22T23:18:01.745Z,22.44
2018-06-22T23:20:30.330Z,22.52
2018-06-22T23:23:09.793Z,22.43
2018-06-22T23:25:38.352Z,22.76
2018-06-22T23:28:06.626Z,22.81
2018-06-22T23:30:34.590Z,22.80
2018-06-22T23:33:02.586Z,22.90
2018-06-22T23:35:30.497Z,23.04
2018-06-22T23:37:59.564Z,23.09
2018-06-22T23:40:27.477Z,23.09
2018-06-22T23:42:56.654Z,23.09
2018-06-22T23:45:25.068Z,23.23
2018-06-22T23:47:53.580Z,23.29
2018-06-22T23:50:22.163Z,23.23
2018-06-22T23:52:50.775Z,23.18
2018-06-22T23:55:19.328Z,23.28
2018-06-22T23:57:47.683Z,23.34
